PWSweather.com
Personal Weather Stations
Station Observations
THAIWX
Pa Daet, Chiang MaiTH 50100

Pa DaetChiang MaiTH 50100

Lat: 18.766158, Lon: 98.97553

Elevation: 1007

Station Type: LaCrosse WS2315 (modified)

http://www.ThaiWx.yolasite.com/

High Low Average
Temperature 95.4°F35.2°C 77.5°F25.3°C 86.3°F30.2°C
Dew Point 64.0°F17.8°C 54.4°F12.4°C 59.8°F15.4°C
Winds 8.2 mph 13.2 kmh Calm Calm 2.0 mph SE3.2 kmh SE
Wind Gusts 12.1 mph19.5 kmh -- 4.0 mph6.4 kmh
Humidity 58% 27% 42%
Pressure 29.91 in1012.9 mb 29.68 in1005.1 mb -
Precipitation 0.00 in0.0 mm - -
Hour Temp Dew Point Humidity Winds Wind Gusts Pressure Precip Precip Rate Daily Precip Total
12:17 AM 84.6°F29.2°C 60.2°F15.7°C 44% 2.0 mph WSW3.2 kmh WSW 2.2 mph3.5 kmh 29.86 in1011.2 mb 0.00 in0.0 mm 0.00 in0.0 mm 0.00 in0.0 mm
12:47 AM 83.7°F28.7°C 60.6°F15.9°C 46% Calm Calm 2.2 mph3.5 kmh 29.86 in1011.2 mb 0.00 in0.0 mm 0.00 in0.0 mm 0.00 in0.0 mm
01:17 AM 82.8°F28.2°C 60.4°F15.8°C 47% Calm Calm -- 29.85 in1010.8 mb 0.00 in0.0 mm 0.00 in0.0 mm 0.00 in0.0 mm
01:48 AM 81.5°F27.5°C 61.1°F16.2°C 50% Calm Calm -- 29.85 in1010.8 mb 0.00 in0.0 mm 0.00 in0.0 mm 0.00 in0.0 mm
02:18 AM 81.0°F27.2°C 61.1°F16.2°C 51% Calm Calm -- 29.84 in1010.5 mb 0.00 in0.0 mm 0.00 in0.0 mm 0.00 in0.0 mm
02:48 AM 80.6°F27.0°C 60.8°F16.0°C 51% Calm Calm -- 29.83 in1010.2 mb 0.00 in0.0 mm 0.00 in0.0 mm 0.00 in0.0 mm
03:19 AM 79.7°F26.5°C 61.0°F16.1°C 53% Calm Calm -- 29.82 in1009.8 mb 0.00 in0.0 mm 0.00 in0.0 mm 0.00 in0.0 mm
03:49 AM 79.0°F26.1°C 61.4°F16.3°C 55% Calm Calm -- 29.82 in1009.8 mb 0.00 in0.0 mm 0.00 in0.0 mm 0.00 in0.0 mm
04:20 AM 79.0°F26.1°C 59.8°F15.4°C 52% Calm Calm -- 29.82 in1009.8 mb 0.00 in0.0 mm 0.00 in0.0 mm 0.00 in0.0 mm
04:50 AM 79.0°F26.1°C 60.4°F15.8°C 53% Calm Calm -- 29.83 in1010.2 mb 0.00 in0.0 mm 0.00 in0.0 mm 0.00 in0.0 mm
05:20 AM 79.0°F26.1°C 60.4°F15.8°C 53% Calm Calm 1.6 mph2.6 kmh 29.84 in1010.5 mb 0.00 in0.0 mm 0.00 in0.0 mm 0.00 in0.0 mm
05:50 AM 78.6°F25.9°C 60.5°F15.8°C 54% Calm Calm -- 29.84 in1010.5 mb 0.00 in0.0 mm 0.00 in0.0 mm 0.00 in0.0 mm
06:20 AM 78.1°F25.6°C 61.1°F16.2°C 56% Calm Calm -- 29.85 in1010.8 mb 0.00 in0.0 mm 0.00 in0.0 mm 0.00 in0.0 mm
06:50 AM 77.5°F25.3°C 61.6°F16.4°C 58% Calm Calm -- 29.86 in1011.2 mb 0.00 in0.0 mm 0.00 in0.0 mm 0.00 in0.0 mm
07:20 AM 77.7°F25.4°C 61.8°F16.6°C 58% Calm Calm -- 29.87 in1011.5 mb 0.00 in0.0 mm 0.00 in0.0 mm 0.00 in0.0 mm
07:50 AM 78.6°F25.9°C 61.6°F16.4°C 56% Calm Calm 2.9 mph4.7 kmh 29.88 in1011.9 mb 0.00 in0.0 mm 0.00 in0.0 mm 0.00 in0.0 mm
08:20 AM 79.5°F26.4°C 61.9°F16.6°C 55% Calm Calm 2.2 mph3.5 kmh 29.89 in1012.2 mb 0.00 in0.0 mm 0.00 in0.0 mm 0.00 in0.0 mm
08:51 AM 80.8°F27.1°C 62.5°F16.9°C 54% Calm Calm 1.6 mph2.6 kmh 29.90 in1012.5 mb 0.00 in0.0 mm 0.00 in0.0 mm 0.00 in0.0 mm
09:21 AM 82.2°F27.9°C 62.8°F17.1°C 52% Calm Calm 3.1 mph5.0 kmh 29.91 in1012.9 mb 0.00 in0.0 mm 0.00 in0.0 mm 0.00 in0.0 mm
09:51 AM 84.0°F28.9°C 62.9°F17.2°C 49% 1.4 mph ESE2.3 kmh ESE 2.7 mph4.3 kmh 29.91 in1012.9 mb 0.00 in0.0 mm 0.00 in0.0 mm 0.00 in0.0 mm
10:21 AM 86.2°F30.1°C 62.3°F16.8°C 45% 2.5 mph E4.0 kmh E 4.0 mph6.4 kmh 29.91 in1012.9 mb 0.00 in0.0 mm 0.00 in0.0 mm 0.00 in0.0 mm
10:52 AM 87.3°F30.7°C 62.7°F17.1°C 44% Calm Calm 5.1 mph8.2 kmh 29.90 in1012.5 mb 0.00 in0.0 mm 0.00 in0.0 mm 0.00 in0.0 mm
11:22 AM 88.3°F31.3°C 62.9°F17.2°C 43% 2.9 mph SE4.7 kmh SE 4.7 mph7.6 kmh 29.89 in1012.2 mb 0.00 in0.0 mm 0.00 in0.0 mm 0.00 in0.0 mm
11:52 AM 88.9°F31.6°C 62.8°F17.1°C 42% 1.9 mph SSW3.1 kmh SSW 5.8 mph9.3 kmh 29.87 in1011.5 mb 0.00 in0.0 mm 0.00 in0.0 mm 0.00 in0.0 mm
12:22 PM 89.8°F32.1°C 63.5°F17.5°C 42% 3.1 mph ESE5.0 kmh ESE 6.5 mph10.5 kmh 29.85 in1010.8 mb 0.00 in0.0 mm 0.00 in0.0 mm 0.00 in0.0 mm
12:52 PM 90.3°F32.4°C 64.0°F17.8°C 42% 5.3 mph SE8.5 kmh SE 8.5 mph13.7 kmh 29.83 in1010.2 mb 0.00 in0.0 mm 0.00 in0.0 mm 0.00 in0.0 mm
01:23 PM 91.2°F32.9°C 63.5°F17.5°C 40% 2.3 mph SE3.7 kmh SE 8.3 mph13.4 kmh 29.81 in1009.5 mb 0.00 in0.0 mm 0.00 in0.0 mm 0.00 in0.0 mm
01:52 PM 92.3°F33.5°C 63.7°F17.6°C 39% 2.1 mph S3.4 kmh S 6.3 mph10.1 kmh 29.78 in1008.5 mb 0.00 in0.0 mm 0.00 in0.0 mm 0.00 in0.0 mm
02:22 PM 93.6°F34.2°C 63.2°F17.3°C 37% 6.4 mph SE10.3 kmh SE 9.4 mph15.1 kmh 29.75 in1007.5 mb 0.00 in0.0 mm 0.00 in0.0 mm 0.00 in0.0 mm
02:52 PM 94.3°F34.6°C 61.4°F16.3°C 34% 4.9 mph SE7.9 kmh SE 9.2 mph14.8 kmh 29.74 in1007.1 mb 0.00 in0.0 mm 0.00 in0.0 mm 0.00 in0.0 mm
03:22 PM 94.8°F34.9°C 60.3°F15.7°C 32% 2.9 mph ESE4.7 kmh ESE 7.2 mph11.6 kmh 29.72 in1006.4 mb 0.00 in0.0 mm 0.00 in0.0 mm 0.00 in0.0 mm
03:52 PM 94.8°F34.9°C 59.5°F15.3°C 31% 3.8 mph SE6.1 kmh SE 8.3 mph13.4 kmh 29.70 in1005.8 mb 0.00 in0.0 mm 0.00 in0.0 mm 0.00 in0.0 mm
04:22 PM 95.4°F35.2°C 59.1°F15.1°C 30% 8.2 mph SE13.2 kmh SE 12.1 mph19.5 kmh 29.69 in1005.4 mb 0.00 in0.0 mm 0.00 in0.0 mm 0.00 in0.0 mm
04:52 PM 95.4°F35.2°C 58.0°F14.4°C 29% 5.6 mph ESE9.0 kmh ESE 9.2 mph14.8 kmh 29.69 in1005.4 mb 0.00 in0.0 mm 0.00 in0.0 mm 0.00 in0.0 mm
05:22 PM 94.8°F34.9°C 55.3°F12.9°C 27% 3.0 mph SE4.8 kmh SE 8.1 mph13.0 kmh 29.68 in1005.1 mb 0.00 in0.0 mm 0.00 in0.0 mm 0.00 in0.0 mm
05:52 PM 94.1°F34.5°C 55.8°F13.2°C 28% 3.1 mph SE5.0 kmh SE 8.1 mph13.0 kmh 29.68 in1005.1 mb 0.00 in0.0 mm 0.00 in0.0 mm 0.00 in0.0 mm
06:22 PM 93.2°F34.0°C 55.0°F12.8°C 28% 2.1 mph SSW3.4 kmh SSW 5.4 mph8.7 kmh 29.69 in1005.4 mb 0.00 in0.0 mm 0.00 in0.0 mm 0.00 in0.0 mm
06:53 PM 92.5°F33.6°C 54.4°F12.4°C 28% 5.0 mph SW8.0 kmh SW 8.5 mph13.7 kmh 29.70 in1005.8 mb 0.00 in0.0 mm 0.00 in0.0 mm 0.00 in0.0 mm
07:23 PM 91.8°F33.2°C 56.0°F13.3°C 30% 2.7 mph S4.3 kmh S 3.8 mph6.1 kmh 29.71 in1006.1 mb 0.00 in0.0 mm 0.00 in0.0 mm 0.00 in0.0 mm
07:53 PM 90.5°F32.5°C 55.7°F13.2°C 31% 2.6 mph SW4.2 kmh SW 5.4 mph8.7 kmh 29.72 in1006.4 mb 0.00 in0.0 mm 0.00 in0.0 mm 0.00 in0.0 mm
08:23 PM 89.8°F32.1°C 55.1°F12.8°C 31% 2.8 mph SW4.5 kmh SW 8.5 mph13.7 kmh 29.73 in1006.8 mb 0.00 in0.0 mm 0.00 in0.0 mm 0.00 in0.0 mm
08:53 PM 89.4°F31.9°C 54.8°F12.7°C 31% 2.2 mph S3.5 kmh S 7.4 mph11.9 kmh 29.73 in1006.8 mb 0.00 in0.0 mm 0.00 in0.0 mm 0.00 in0.0 mm
09:24 PM 88.0°F31.1°C 55.1°F12.8°C 33% 2.8 mph SSW4.5 kmh SSW 6.0 mph9.7 kmh 29.75 in1007.5 mb 0.00 in0.0 mm 0.00 in0.0 mm 0.00 in0.0 mm
09:54 PM 86.2°F30.1°C 55.2°F12.9°C 35% 1.7 mph SSW2.7 kmh SSW 4.9 mph7.9 kmh 29.77 in1008.1 mb 0.00 in0.0 mm 0.00 in0.0 mm 0.00 in0.0 mm
10:24 PM 85.8°F29.9°C 55.7°F13.2°C 36% 3.9 mph SW6.3 kmh SW 5.1 mph8.2 kmh 29.78 in1008.5 mb 0.00 in0.0 mm 0.00 in0.0 mm 0.00 in0.0 mm
10:54 PM 86.2°F30.1°C 56.8°F13.8°C 37% 2.6 mph SW4.2 kmh SW 5.8 mph9.3 kmh 29.78 in1008.5 mb 0.00 in0.0 mm 0.00 in0.0 mm 0.00 in0.0 mm
11:25 PM 84.9°F29.4°C 57.2°F14.0°C 39% 1.3 mph NNW2.1 kmh NNW 2.5 mph4.0 kmh 29.79 in1008.8 mb 0.00 in0.0 mm 0.00 in0.0 mm 0.00 in0.0 mm
11:55 PM 83.7°F28.7°C 57.5°F14.2°C 41% Calm Calm 1.6 mph2.6 kmh 29.79 in1008.8 mb 0.00 in0.0 mm 0.00 in0.0 mm 0.00 in0.0 mm